Maimiti — PBIJ — position and weather

sailwx.info

Track history (hours):
 
Tides and Currents Weather Stations Pressure Air Temp Water Temp Dewpoint Dewpoint Depression Visibility Wind Speed Wind Dir Waves Ship Positions

Maimiti

Last reported at 2015-Jan-29 05:33 UTC. Time now 2015-Jan-29 06:25 UTC.
Position N 53°51' E 008°59'.

Length 89 m; draft 4.8 m.

Type: Cargo ship. MMSI: 244312000.

Date/timePositionNaut miles runAvg speedWind from/ knotsBaromVisibWave heightAir tempDewpointWater temp
2015-Jan-29 05:33N 53°51' E 008°59'0 0.1
2015-Jan-29 04:33N 53°51' E 008°59'0 0.1
2015-Jan-29 03:33N 53°51' E 008°59'0 0.0
2015-Jan-29 02:34N 53°51' E 008°59'0 0.2
2015-Jan-29 01:33N 53°51' E 008°59'1 0.8
2015-Jan-29 00:34N 53°51' E 008°58'0 0.4
2015-Jan-28 23:33N 53°51' E 008°58'0 0.2
2015-Jan-28 22:33N 53°52' E 008°59'0 0.3
2015-Jan-28 21:33N 53°51' E 008°59'0 0.0
2015-Jan-28 20:33N 53°52' E 008°59'0 0.0
2015-Jan-28 19:34N 53°52' E 008°59'0 0.0
2015-Jan-28 18:33N 53°52' E 008°59'0 0.0
2015-Jan-28 17:33N 53°52' E 008°59'0 0.0
2015-Jan-28 16:33N 53°52' E 008°59'0 0.0
2015-Jan-28 15:34N 53°52' E 008°59'0 0.1
2015-Jan-28 14:33N 53°52' E 008°59'0 0.2
2015-Jan-28 13:33N 53°51' E 008°59'6 6.3
2015-Jan-28 12:33N 53°54' E 009°09'6 6.4
2015-Jan-28 11:33N 53°58' E 009°16'9 8.6
2015-Jan-28 10:32N 54°07' E 009°20'8 6.9
2015-Jan-28 09:19N 54°12' E 009°32'5 7.0
2015-Jan-28 08:33N 54°16' E 009°37'8 7.8
2015-Jan-28 07:33N 54°21' E 009°47'7 7.1
2015-Jan-28 06:33N 54°21' E 009°59'6 5.8
2015-Jan-28 05:33N 54°22' E 010°08'4 4.1
2015-Jan-28 04:33N 54°25' E 010°13'1010.2
2015-Jan-28 03:33N 54°32' E 010°26'2510.6
2015-Jan-28 01:14N 54°37' E 011°08'7 9.9
2015-Jan-28 00:33N 54°34' E 011°18'1010.1
2015-Jan-27 23:33N 54°30' E 011°34'10 9.6
2015-Jan-27 22:33N 54°29' E 011°50'1010.5
2015-Jan-27 21:33N 54°28' E 012°08'1110.2
2015-Jan-27 20:26N 54°38' E 012°17'2110.9
2015-Jan-27 18:29N 54°56' E 012°36'1011.4
2015-Jan-27 17:33N 55°07' E 012°37'1111.0
2015-Jan-27 16:33N 55°18' E 012°38'1111.2
2015-Jan-27 15:33N 55°29' E 012°41'1211.7
2015-Jan-27 14:33N 55°41' E 012°41'1111.3
2015-Jan-27 13:33N 55°52' E 012°41'9 9.4
2015-Jan-27 12:34N 56°01' E 012°42'0 0.2
2015-Jan-27 11:33N 56°01' E 012°42'0 0.0
2015-Jan-27 10:33N 56°01' E 012°42'0 0.0
2015-Jan-27 09:33N 56°01' E 012°42'0 0.0
2015-Jan-27 08:33N 56°01' E 012°42'0 0.0
2015-Jan-27 07:33N 56°01' E 012°42'0 0.0
2015-Jan-27 06:33N 56°01' E 012°42'0 0.0
2015-Jan-27 05:33N 56°01' E 012°42'0 0.0
2015-Jan-27 04:33N 56°01' E 012°42'0 0.0
2015-Jan-27 03:33N 56°01' E 012°42'0 0.0
2015-Jan-27 02:33N 56°01' E 012°42'0 0.0
2015-Jan-27 01:33N 56°01' E 012°42'0 0.0
2015-Jan-27 00:33N 56°01' E 012°42'0 0.0
2015-Jan-26 23:33N 56°01' E 012°42'0 0.0
2015-Jan-26 22:33N 56°01' E 012°42'0 0.0
2015-Jan-26 21:33N 56°01' E 012°42'0 0.0
2015-Jan-26 20:33N 56°01' E 012°42'0 0.0
2015-Jan-26 19:33N 56°01' E 012°42'0 0.0
2015-Jan-26 18:33N 56°01' E 012°42'0 0.0
2015-Jan-26 17:33N 56°01' E 012°42'0 0.0
2015-Jan-26 16:33N 56°01' E 012°42'0 0.0
2015-Jan-26 15:33N 56°01' E 012°42'0 0.0
2015-Jan-26 14:33N 56°01' E 012°42'0 0.0
2015-Jan-26 13:33N 56°01' E 012°42'0 0.0
2015-Jan-26 12:33N 56°01' E 012°42'0 0.0
2015-Jan-26 11:33N 56°01' E 012°42'0 0.0
2015-Jan-26 10:33N 56°01' E 012°42'0 0.0
2015-Jan-26 09:33N 56°01' E 012°42'0 0.0
2015-Jan-26 08:33N 56°01' E 012°42'0 0.0
2015-Jan-26 07:33N 56°01' E 012°42'0 0.0
2015-Jan-26 06:33N 56°01' E 012°42'0 0.0
2015-Jan-26 05:33N 56°01' E 012°42'0 0.0
2015-Jan-26 04:33N 56°01' E 012°42'0 0.0
2015-Jan-26 03:33N 56°01' E 012°42'0 0.0
2015-Jan-26 02:33N 56°01' E 012°42'0 0.0
2015-Jan-26 01:33N 56°01' E 012°42'0 0.0
2015-Jan-26 00:33N 56°01' E 012°42'0 0.0
2015-Jan-25 23:33N 56°01' E 012°42'0 0.0
2015-Jan-25 22:33N 56°01' E 012°42'0 0.0
2015-Jan-25 21:33N 56°01' E 012°42'0 0.0
2015-Jan-25 20:33N 56°01' E 012°42'0 0.0
2015-Jan-25 19:33N 56°01' E 012°42'0 0.0
2015-Jan-25 18:33N 56°01' E 012°42'0 0.0
2015-Jan-25 17:33N 56°01' E 012°42'0 0.0
2015-Jan-25 16:33N 56°01' E 012°42'0 0.0
2015-Jan-25 15:33N 56°01' E 012°42'0 0.0
2015-Jan-25 14:33N 56°01' E 012°42'0 0.0
2015-Jan-25 13:33N 56°01' E 012°42'0 0.0
2015-Jan-25 12:33N 56°01' E 012°42'0 0.0
2015-Jan-25 11:33N 56°01' E 012°42'0 0.0
2015-Jan-25 10:33N 56°01' E 012°42'0 0.0
2015-Jan-25 09:33N 56°01' E 012°42'0 0.0
2015-Jan-25 08:33N 56°01' E 012°42'0 0.0
2015-Jan-25 07:33N 56°01' E 012°42'0 0.0
2015-Jan-25 06:33N 56°01' E 012°42'0 0.0
2015-Jan-25 05:33N 56°01' E 012°42'0 0.0
2015-Jan-25 04:33N 56°01' E 012°42'0 0.0
2015-Jan-25 03:33N 56°01' E 012°42'0 0.0
2015-Jan-25 02:33N 56°01' E 012°42'0 0.0
2015-Jan-25 01:33N 56°01' E 012°42'0 0.0
2015-Jan-25 00:33N 56°01' E 012°42'0 0.0
2015-Jan-24 23:33N 56°01' E 012°42'0 0.0
2015-Jan-24 22:33N 56°01' E 012°42'0 0.0
2015-Jan-24 21:33N 56°01' E 012°42'0 0.0
2015-Jan-24 20:33N 56°01' E 012°42'0 0.0
2015-Jan-24 19:33N 56°01' E 012°42'0 0.0
2015-Jan-24 18:33N 56°01' E 012°42'0 0.0
2015-Jan-24 17:33N 56°01' E 012°42'0 0.0
2015-Jan-24 16:33N 56°01' E 012°42'0 0.0
2015-Jan-24 15:33N 56°01' E 012°42'0 0.0
2015-Jan-24 14:33N 56°01' E 012°42'0 0.0
2015-Jan-24 13:33N 56°01' E 012°42'0 0.0
2015-Jan-24 12:33N 56°01' E 012°42'0 0.0
2015-Jan-24 11:33N 56°01' E 012°42'0 0.0
2015-Jan-24 10:33N 56°01' E 012°42'0 0.0
2015-Jan-24 09:33N 56°01' E 012°42'0 0.0
2015-Jan-24 08:33N 56°01' E 012°42'0 0.0
2015-Jan-24 07:33N 56°01' E 012°42'0 0.0
2015-Jan-24 06:33N 56°01' E 012°42'0 0.0
2015-Jan-24 05:33N 56°01' E 012°42'0 0.0
2015-Jan-24 04:33N 56°01' E 012°42'0 0.0
2015-Jan-24 03:33N 56°01' E 012°42'0 0.0
2015-Jan-24 02:33N 56°01' E 012°42'0 0.0
2015-Jan-24 01:33N 56°01' E 012°42'0 0.0
2015-Jan-24 00:33N 56°01' E 012°42'0 0.0
2015-Jan-23 23:33N 56°01' E 012°42'0 0.0
2015-Jan-23 22:33N 56°01' E 012°42'0 0.0
2015-Jan-23 21:33N 56°01' E 012°42'0 0.0
2015-Jan-23 20:33N 56°01' E 012°42'0 0.0
2015-Jan-23 19:33N 56°01' E 012°42'0 0.0
2015-Jan-23 18:33N 56°01' E 012°42'0 0.0
2015-Jan-23 17:33N 56°01' E 012°42'0 0.0
2015-Jan-23 16:33N 56°01' E 012°42'0 0.0
2015-Jan-23 15:33N 56°01' E 012°42'0 0.0
2015-Jan-23 14:33N 56°01' E 012°42'0 0.0
2015-Jan-23 13:33N 56°01' E 012°42'2 1.7
2015-Jan-23 12:33N 56°02' E 012°39'9 9.1
2015-Jan-23 11:33N 56°08' E 012°27'1111.4
2015-Jan-23 10:33N 56°11' E 012°07'  
2015-Jan-20 11:08N 55°12' E 009°48'611.2
2015-Jan-20 10:33N 55°08' E 009°56'1211.4
2015-Jan-20 09:32N 54°59' E 010°09'1411.2
2015-Jan-20 08:15N 54°45' E 010°16'811.1
2015-Jan-20 07:33N 54°37' E 010°18'1010.2
2015-Jan-20 06:33N 54°27' E 010°16'7 6.7
2015-Jan-20 05:33N 54°22' E 010°09'1 1.4
2015-Jan-20 04:33N 54°22' E 010°06'8 7.7
2015-Jan-20 03:33N 54°21' E 009°53'4 4.3
2015-Jan-20 02:33N 54°21' E 009°46'9 6.4
2015-Jan-20 01:09N 54°14' E 009°36'6 7.3
2015-Jan-20 00:17N 54°11' E 009°27'4 5.0
2015-Jan-19 23:29N 54°09' E 009°21'6 6.3
2015-Jan-19 22:34N 54°03' E 009°18'7 6.5
2015-Jan-19 21:33N 53°57' E 009°14'5 4.6
2015-Jan-19 20:33N 53°54' E 009°09'5 5.2
2015-Jan-19 19:33N 53°52' E 009°17'1312.7
2015-Jan-19 18:33N 53°42' E 009°30'1212.1
2015-Jan-19 17:33N 53°34' E 009°45'7 7.3
2015-Jan-19 16:33N 53°31' E 009°57'0 0.0
2015-Jan-19 15:33N 53°31' E 009°57'0 0.0
2015-Jan-19 14:33N 53°31' E 009°57'0 0.0
2015-Jan-19 13:33N 53°31' E 009°57'0 0.0
2015-Jan-19 12:33N 53°31' E 009°57'0 0.0
2015-Jan-19 11:33N 53°31' E 009°57'0 0.0
2015-Jan-19 10:33N 53°31' E 009°57'0 0.0
2015-Jan-19 09:33N 53°31' E 009°57'0 0.0
2015-Jan-19 08:33N 53°31' E 009°57'2 2.4
2015-Jan-19 07:32N 53°32' E 010°00'0 0.0
2015-Jan-19 06:33N 53°32' E 010°00'  
Track history (hours):
 
Tides and Currents Weather Stations Pressure Air Temp Water Temp Dewpoint Dewpoint Depression Visibility Wind Speed Wind Dir Waves Ship Positions

Maimiti

Last reported at 2015-Jan-29 05:33 UTC. Time now 2015-Jan-29 06:25 UTC.
Position N 53°51' E 008°59'.

Length 89 m; draft 4.8 m.

Type: Cargo ship. MMSI: 244312000.

Date/timePositionNaut miles runAvg speedWind from/ knotsBaromVisibWave heightAir tempDewpointWater temp
2015-Jan-29 05:33N 53°51' E 008°59'0 0.1
2015-Jan-29 04:33N 53°51' E 008°59'0 0.1
2015-Jan-29 03:33N 53°51' E 008°59'0 0.0
2015-Jan-29 02:34N 53°51' E 008°59'0 0.2
2015-Jan-29 01:33N 53°51' E 008°59'1 0.8
2015-Jan-29 00:34N 53°51' E 008°58'0 0.4
2015-Jan-28 23:33N 53°51' E 008°58'0 0.2
2015-Jan-28 22:33N 53°52' E 008°59'0 0.3
2015-Jan-28 21:33N 53°51' E 008°59'0 0.0
2015-Jan-28 20:33N 53°52' E 008°59'0 0.0
2015-Jan-28 19:34N 53°52' E 008°59'0 0.0
2015-Jan-28 18:33N 53°52' E 008°59'0 0.0
2015-Jan-28 17:33N 53°52' E 008°59'0 0.0
2015-Jan-28 16:33N 53°52' E 008°59'0 0.0
2015-Jan-28 15:34N 53°52' E 008°59'0 0.1
2015-Jan-28 14:33N 53°52' E 008°59'0 0.2
2015-Jan-28 13:33N 53°51' E 008°59'6 6.3
2015-Jan-28 12:33N 53°54' E 009°09'6 6.4
2015-Jan-28 11:33N 53°58' E 009°16'9 8.6
2015-Jan-28 10:32N 54°07' E 009°20'8 6.9
2015-Jan-28 09:19N 54°12' E 009°32'5 7.0
2015-Jan-28 08:33N 54°16' E 009°37'8 7.8
2015-Jan-28 07:33N 54°21' E 009°47'7 7.1
2015-Jan-28 06:33N 54°21' E 009°59'6 5.8
2015-Jan-28 05:33N 54°22' E 010°08'4 4.1
2015-Jan-28 04:33N 54°25' E 010°13'1010.2
2015-Jan-28 03:33N 54°32' E 010°26'2510.6
2015-Jan-28 01:14N 54°37' E 011°08'7 9.9
2015-Jan-28 00:33N 54°34' E 011°18'1010.1
2015-Jan-27 23:33N 54°30' E 011°34'10 9.6
2015-Jan-27 22:33N 54°29' E 011°50'1010.5
2015-Jan-27 21:33N 54°28' E 012°08'1110.2
2015-Jan-27 20:26N 54°38' E 012°17'2110.9
2015-Jan-27 18:29N 54°56' E 012°36'1011.4
2015-Jan-27 17:33N 55°07' E 012°37'1111.0
2015-Jan-27 16:33N 55°18' E 012°38'1111.2
2015-Jan-27 15:33N 55°29' E 012°41'1211.7
2015-Jan-27 14:33N 55°41' E 012°41'1111.3
2015-Jan-27 13:33N 55°52' E 012°41'9 9.4
2015-Jan-27 12:34N 56°01' E 012°42'0 0.2
2015-Jan-27 11:33N 56°01' E 012°42'0 0.0
2015-Jan-27 10:33N 56°01' E 012°42'0 0.0
2015-Jan-27 09:33N 56°01' E 012°42'0 0.0
2015-Jan-27 08:33N 56°01' E 012°42'0 0.0
2015-Jan-27 07:33N 56°01' E 012°42'0 0.0
2015-Jan-27 06:33N 56°01' E 012°42'0 0.0
2015-Jan-27 05:33N 56°01' E 012°42'0 0.0
2015-Jan-27 04:33N 56°01' E 012°42'0 0.0
2015-Jan-27 03:33N 56°01' E 012°42'0 0.0
2015-Jan-27 02:33N 56°01' E 012°42'0 0.0
2015-Jan-27 01:33N 56°01' E 012°42'0 0.0
2015-Jan-27 00:33N 56°01' E 012°42'0 0.0
2015-Jan-26 23:33N 56°01' E 012°42'0 0.0
2015-Jan-26 22:33N 56°01' E 012°42'0 0.0
2015-Jan-26 21:33N 56°01' E 012°42'0 0.0
2015-Jan-26 20:33N 56°01' E 012°42'0 0.0
2015-Jan-26 19:33N 56°01' E 012°42'0 0.0
2015-Jan-26 18:33N 56°01' E 012°42'0 0.0
2015-Jan-26 17:33N 56°01' E 012°42'0 0.0
2015-Jan-26 16:33N 56°01' E 012°42'0 0.0
2015-Jan-26 15:33N 56°01' E 012°42'0 0.0
2015-Jan-26 14:33N 56°01' E 012°42'0 0.0
2015-Jan-26 13:33N 56°01' E 012°42'0 0.0
2015-Jan-26 12:33N 56°01' E 012°42'0 0.0
2015-Jan-26 11:33N 56°01' E 012°42'0 0.0
2015-Jan-26 10:33N 56°01' E 012°42'0 0.0
2015-Jan-26 09:33N 56°01' E 012°42'0 0.0
2015-Jan-26 08:33N 56°01' E 012°42'0 0.0
2015-Jan-26 07:33N 56°01' E 012°42'0 0.0
2015-Jan-26 06:33N 56°01' E 012°42'0 0.0
2015-Jan-26 05:33N 56°01' E 012°42'0 0.0
2015-Jan-26 04:33N 56°01' E 012°42'0 0.0
2015-Jan-26 03:33N 56°01' E 012°42'0 0.0
2015-Jan-26 02:33N 56°01' E 012°42'0 0.0
2015-Jan-26 01:33N 56°01' E 012°42'0 0.0
2015-Jan-26 00:33N 56°01' E 012°42'0 0.0
2015-Jan-25 23:33N 56°01' E 012°42'0 0.0
2015-Jan-25 22:33N 56°01' E 012°42'0 0.0
2015-Jan-25 21:33N 56°01' E 012°42'0 0.0
2015-Jan-25 20:33N 56°01' E 012°42'0 0.0
2015-Jan-25 19:33N 56°01' E 012°42'0 0.0
2015-Jan-25 18:33N 56°01' E 012°42'0 0.0
2015-Jan-25 17:33N 56°01' E 012°42'0 0.0
2015-Jan-25 16:33N 56°01' E 012°42'0 0.0
2015-Jan-25 15:33N 56°01' E 012°42'0 0.0
2015-Jan-25 14:33N 56°01' E 012°42'0 0.0
2015-Jan-25 13:33N 56°01' E 012°42'0 0.0
2015-Jan-25 12:33N 56°01' E 012°42'0 0.0
2015-Jan-25 11:33N 56°01' E 012°42'0 0.0
2015-Jan-25 10:33N 56°01' E 012°42'0 0.0
2015-Jan-25 09:33N 56°01' E 012°42'0 0.0
2015-Jan-25 08:33N 56°01' E 012°42'0 0.0
2015-Jan-25 07:33N 56°01' E 012°42'0 0.0
2015-Jan-25 06:33N 56°01' E 012°42'0 0.0
2015-Jan-25 05:33N 56°01' E 012°42'0 0.0
2015-Jan-25 04:33N 56°01' E 012°42'0 0.0
2015-Jan-25 03:33N 56°01' E 012°42'0 0.0
2015-Jan-25 02:33N 56°01' E 012°42'0 0.0
2015-Jan-25 01:33N 56°01' E 012°42'0 0.0
2015-Jan-25 00:33N 56°01' E 012°42'0 0.0
2015-Jan-24 23:33N 56°01' E 012°42'0 0.0
2015-Jan-24 22:33N 56°01' E 012°42'0 0.0
2015-Jan-24 21:33N 56°01' E 012°42'0 0.0
2015-Jan-24 20:33N 56°01' E 012°42'0 0.0
2015-Jan-24 19:33N 56°01' E 012°42'0 0.0
2015-Jan-24 18:33N 56°01' E 012°42'0 0.0
2015-Jan-24 17:33N 56°01' E 012°42'0 0.0
2015-Jan-24 16:33N 56°01' E 012°42'0 0.0
2015-Jan-24 15:33N 56°01' E 012°42'0 0.0
2015-Jan-24 14:33N 56°01' E 012°42'0 0.0
2015-Jan-24 13:33N 56°01' E 012°42'0 0.0
2015-Jan-24 12:33N 56°01' E 012°42'0 0.0
2015-Jan-24 11:33N 56°01' E 012°42'0 0.0
2015-Jan-24 10:33N 56°01' E 012°42'0 0.0
2015-Jan-24 09:33N 56°01' E 012°42'0 0.0
2015-Jan-24 08:33N 56°01' E 012°42'0 0.0
2015-Jan-24 07:33N 56°01' E 012°42'0 0.0
2015-Jan-24 06:33N 56°01' E 012°42'0 0.0
2015-Jan-24 05:33N 56°01' E 012°42'0 0.0
2015-Jan-24 04:33N 56°01' E 012°42'0 0.0
2015-Jan-24 03:33N 56°01' E 012°42'0 0.0
2015-Jan-24 02:33N 56°01' E 012°42'0 0.0
2015-Jan-24 01:33N 56°01' E 012°42'0 0.0
2015-Jan-24 00:33N 56°01' E 012°42'0 0.0
2015-Jan-23 23:33N 56°01' E 012°42'0 0.0
2015-Jan-23 22:33N 56°01' E 012°42'0 0.0
2015-Jan-23 21:33N 56°01' E 012°42'0 0.0
2015-Jan-23 20:33N 56°01' E 012°42'0 0.0
2015-Jan-23 19:33N 56°01' E 012°42'0 0.0
2015-Jan-23 18:33N 56°01' E 012°42'0 0.0
2015-Jan-23 17:33N 56°01' E 012°42'0 0.0
2015-Jan-23 16:33N 56°01' E 012°42'0 0.0
2015-Jan-23 15:33N 56°01' E 012°42'0 0.0
2015-Jan-23 14:33N 56°01' E 012°42'0 0.0
2015-Jan-23 13:33N 56°01' E 012°42'2 1.7
2015-Jan-23 12:33N 56°02' E 012°39'9 9.1
2015-Jan-23 11:33N 56°08' E 012°27'1111.4
2015-Jan-23 10:33N 56°11' E 012°07'  
2015-Jan-20 11:08N 55°12' E 009°48'611.2
2015-Jan-20 10:33N 55°08' E 009°56'1211.4
2015-Jan-20 09:32N 54°59' E 010°09'1411.2
2015-Jan-20 08:15N 54°45' E 010°16'811.1
2015-Jan-20 07:33N 54°37' E 010°18'1010.2
2015-Jan-20 06:33N 54°27' E 010°16'7 6.7
2015-Jan-20 05:33N 54°22' E 010°09'1 1.4
2015-Jan-20 04:33N 54°22' E 010°06'8 7.7
2015-Jan-20 03:33N 54°21' E 009°53'4 4.3
2015-Jan-20 02:33N 54°21' E 009°46'9 6.4
2015-Jan-20 01:09N 54°14' E 009°36'6 7.3
2015-Jan-20 00:17N 54°11' E 009°27'4 5.0
2015-Jan-19 23:29N 54°09' E 009°21'6 6.3
2015-Jan-19 22:34N 54°03' E 009°18'7 6.5
2015-Jan-19 21:33N 53°57' E 009°14'5 4.6
2015-Jan-19 20:33N 53°54' E 009°09'5 5.2
2015-Jan-19 19:33N 53°52' E 009°17'1312.7
2015-Jan-19 18:33N 53°42' E 009°30'1212.1
2015-Jan-19 17:33N 53°34' E 009°45'7 7.3
2015-Jan-19 16:33N 53°31' E 009°57'0 0.0
2015-Jan-19 15:33N 53°31' E 009°57'0 0.0
2015-Jan-19 14:33N 53°31' E 009°57'0 0.0
2015-Jan-19 13:33N 53°31' E 009°57'0 0.0
2015-Jan-19 12:33N 53°31' E 009°57'0 0.0
2015-Jan-19 11:33N 53°31' E 009°57'0 0.0
2015-Jan-19 10:33N 53°31' E 009°57'0 0.0
2015-Jan-19 09:33N 53°31' E 009°57'0 0.0
2015-Jan-19 08:33N 53°31' E 009°57'2 2.4
2015-Jan-19 07:32N 53°32' E 010°00'0 0.0
2015-Jan-19 06:33N 53°32' E 010°00'  

Dump ship's entire track history